Terminal Aerodrome Forecast
Issued by NWS

Home | Current Version | Previous Version | Text Only | Print | Product List | Glossary On
Versions: 1 2 3 4 5 6 7 8 9 10 11 12 13
000
FTUS45 KRIW 301700
TAFBPI
TAF
KBPI 301720Z 3018/3118 18011KT P6SM VCSH SCT120
     FM301900 28022G32KT P6SM VCTS SCT070CB BKN100
     FM310200 30011KT P6SM VCSH SCT090 BKN120
     FM311000 VRB07KT P6SM VCSH SCT060
     FM311600 27010KT P6SM FEW060=

USA.gov is the U.S. government's official web portal to all federal, state and local government web resources and services.